sensor_id;sensor_type;location;lat;lon;timestamp;pressure;altitude;pressure_sealevel;temperature;humidity
55068;BME280;40965;52.368;9.712;2023-10-31T00:01:36;98803.53;;;12.06;100.00
55068;BME280;40965;52.368;9.712;2023-10-31T00:04:02;98807.84;;;12.07;100.00
55068;BME280;40965;52.368;9.712;2023-10-31T00:06:29;98800.91;;;12.06;100.00
55068;BME280;40965;52.368;9.712;2023-10-31T00:08:56;98799.00;;;12.10;100.00
55068;BME280;40965;52.368;9.712;2023-10-31T00:11:22;98798.22;;;12.07;100.00
55068;BME280;40965;52.368;9.712;2023-10-31T00:13:49;98799.84;;;12.10;100.00
55068;BME280;40965;52.368;9.712;2023-10-31T00:16:15;98801.59;;;12.10;100.00
55068;BME280;40965;52.368;9.712;2023-10-31T00:18:44;98779.72;;;12.11;100.00
55068;BME280;40965;52.368;9.712;2023-10-31T00:21:10;98774.53;;;12.09;100.00
55068;BME280;40965;52.368;9.712;2023-10-31T00:23:44;98777.16;;;12.09;100.00
55068;BME280;40965;52.368;9.712;2023-10-31T00:26:12;98782.56;;;12.06;100.00
55068;BME280;40965;52.368;9.712;2023-10-31T00:28:38;98778.09;;;12.08;100.00
55068;BME280;40965;52.368;9.712;2023-10-31T00:31:05;98783.41;;;12.06;100.00
55068;BME280;40965;52.368;9.712;2023-10-31T00:33:34;98784.25;;;12.07;100.00
55068;BME280;40965;52.368;9.712;2023-10-31T00:36:01;98787.09;;;12.02;100.00
55068;BME280;40965;52.368;9.712;2023-10-31T00:38:28;98783.59;;;12.02;100.00
55068;BME280;40965;52.368;9.712;2023-10-31T00:40:54;98783.56;;;12.03;100.00
55068;BME280;40965;52.368;9.712;2023-10-31T00:43:24;98779.22;;;12.02;100.00
55068;BME280;40965;52.368;9.712;2023-10-31T00:45:51;98778.31;;;12.03;100.00
55068;BME280;40965;52.368;9.712;2023-10-31T00:48:20;98774.81;;;12.03;100.00
55068;BME280;40965;52.368;9.712;2023-10-31T00:50:46;98774.75;;;12.04;100.00
55068;BME280;40965;52.368;9.712;2023-10-31T00:53:13;98773.00;;;12.05;100.00
55068;BME280;40965;52.368;9.712;2023-10-31T00:55:40;98776.31;;;12.08;100.00
55068;BME280;40965;52.368;9.712;2023-10-31T00:58:07;98769.38;;;12.07;100.00
55068;BME280;40965;52.368;9.712;2023-10-31T01:00:37;98776.25;;;12.10;100.00
55068;BME280;40965;52.368;9.712;2023-10-31T01:03:04;98774.47;;;12.11;100.00
55068;BME280;40965;52.368;9.712;2023-10-31T01:05:30;98776.25;;;12.10;100.00
55068;BME280;40965;52.368;9.712;2023-10-31T01:07:57;98763.84;;;12.14;100.00
55068;BME280;40965;52.368;9.712;2023-10-31T01:10:24;98763.78;;;12.15;100.00
55068;BME280;40965;52.368;9.712;2023-10-31T01:12:52;98765.50;;;12.16;100.00
55068;BME280;40965;52.368;9.712;2023-10-31T01:15:19;98755.00;;;12.16;100.00
55068;BME280;40965;52.368;9.712;2023-10-31T01:17:46;98763.78;;;12.15;100.00
55068;BME280;40965;52.368;9.712;2023-10-31T01:20:11;98759.31;;;12.17;100.00
55068;BME280;40965;52.368;9.712;2023-10-31T01:22:38;98755.75;;;12.18;100.00
55068;BME280;40965;52.368;9.712;2023-10-31T01:25:05;98745.28;;;12.18;100.00
55068;BME280;40965;52.368;9.712;2023-10-31T01:27:32;98754.06;;;12.17;100.00
55068;BME280;40965;52.368;9.712;2023-10-31T01:29:58;98754.84;;;12.19;100.00
55068;BME280;40965;52.368;9.712;2023-10-31T01:32:25;98761.00;;;12.18;100.00
55068;BME280;40965;52.368;9.712;2023-10-31T01:34:52;98760.25;;;12.16;100.00
55068;BME280;40965;52.368;9.712;2023-10-31T01:37:18;98757.53;;;12.18;100.00
55068;BME280;40965;52.368;9.712;2023-10-31T01:39:46;98755.03;;;12.15;100.00
55068;BME280;40965;52.368;9.712;2023-10-31T01:42:14;98736.63;;;12.16;100.00
55068;BME280;40965;52.368;9.712;2023-10-31T01:44:41;98743.47;;;12.19;100.00
55068;BME280;40965;52.368;9.712;2023-10-31T01:47:08;98737.41;;;12.18;100.00
55068;BME280;40965;52.368;9.712;2023-10-31T01:49:36;98730.25;;;12.22;100.00
55068;BME280;40965;52.368;9.712;2023-10-31T01:52:04;98724.34;;;12.17;100.00
55068;BME280;40965;52.368;9.712;2023-10-31T01:54:32;98720.91;;;12.16;100.00
55068;BME280;40965;52.368;9.712;2023-10-31T01:57:00;98720.75;;;12.19;100.00
55068;BME280;40965;52.368;9.712;2023-10-31T01:59:28;98705.91;;;12.18;100.00
55068;BME280;40965;52.368;9.712;2023-10-31T02:01:55;98707.56;;;12.21;100.00
55068;BME280;40965;52.368;9.712;2023-10-31T02:04:23;98705.75;;;12.21;100.00
55068;BME280;40965;52.368;9.712;2023-10-31T02:06:50;98709.09;;;12.25;100.00
55068;BME280;40965;52.368;9.712;2023-10-31T02:09:16;98709.75;;;12.30;100.00
55068;BME280;40965;52.368;9.712;2023-10-31T02:11:49;98706.03;;;12.34;100.00
55068;BME280;40965;52.368;9.712;2023-10-31T02:14:15;98698.81;;;12.39;100.00
55068;BME280;40965;52.368;9.712;2023-10-31T02:16:43;98703.75;;;12.46;100.00
55068;BME280;40965;52.368;9.712;2023-10-31T02:19:11;98705.31;;;12.50;100.00
55068;BME280;40965;52.368;9.712;2023-10-31T02:21:40;98694.69;;;12.53;100.00
55068;BME280;40965;52.368;9.712;2023-10-31T02:24:07;98700.69;;;12.55;100.00
55068;BME280;40965;52.368;9.712;2023-10-31T02:26:34;98697.06;;;12.57;100.00
55068;BME280;40965;52.368;9.712;2023-10-31T02:29:01;98703.03;;;12.61;100.00
55068;BME280;40965;52.368;9.712;2023-10-31T02:31:28;98701.31;;;12.60;100.00
55068;BME280;40965;52.368;9.712;2023-10-31T02:33:55;98703.09;;;12.60;100.00
55068;BME280;40965;52.368;9.712;2023-10-31T02:36:28;98699.69;;;12.57;100.00
55068;BME280;40965;52.368;9.712;2023-10-31T02:38:54;98705.09;;;12.54;100.00
55068;BME280;40965;52.368;9.712;2023-10-31T02:41:21;98699.78;;;12.56;100.00
55068;BME280;40965;52.368;9.712;2023-10-31T02:43:48;98691.13;;;12.54;100.00
55068;BME280;40965;52.368;9.712;2023-10-31T02:46:15;98683.25;;;12.54;100.00
55068;BME280;40965;52.368;9.712;2023-10-31T02:48:41;98682.31;;;12.55;100.00
55068;BME280;40965;52.368;9.712;2023-10-31T02:51:08;98678.84;;;12.54;100.00
55068;BME280;40965;52.368;9.712;2023-10-31T02:53:35;98683.94;;;12.57;100.00
55068;BME280;40965;52.368;9.712;2023-10-31T02:56:02;98676.06;;;12.57;100.00
55068;BME280;40965;52.368;9.712;2023-10-31T02:58:32;98685.56;;;12.60;100.00
55068;BME280;40965;52.368;9.712;2023-10-31T03:01:01;98686.44;;;12.61;100.00
55068;BME280;40965;52.368;9.712;2023-10-31T03:03:28;98686.34;;;12.62;100.00
55068;BME280;40965;52.368;9.712;2023-10-31T03:05:55;98678.41;;;12.64;100.00
55068;BME280;40965;52.368;9.712;2023-10-31T03:08:21;98681.09;;;12.62;100.00
55068;BME280;40965;52.368;9.712;2023-10-31T03:10:49;98680.16;;;12.63;100.00
55068;BME280;40965;52.368;9.712;2023-10-31T03:13:17;98670.63;;;12.62;100.00
55068;BME280;40965;52.368;9.712;2023-10-31T03:15:46;98666.03;;;12.66;100.00
55068;BME280;40965;52.368;9.712;2023-10-31T03:18:13;98667.66;;;12.68;100.00
55068;BME280;40965;52.368;9.712;2023-10-31T03:20:43;98669.38;;;12.69;100.00
55068;BME280;40965;52.368;9.712;2023-10-31T03:23:10;98666.75;;;12.69;100.00
55068;BME280;40965;52.368;9.712;2023-10-31T03:25:36;98671.00;;;12.72;100.00
55068;BME280;40965;52.368;9.712;2023-10-31T03:28:03;98670.84;;;12.75;100.00
55068;BME280;40965;52.368;9.712;2023-10-31T03:30:30;98675.16;;;12.76;100.00
55068;BME280;40965;52.368;9.712;2023-10-31T03:32:56;98678.88;;;12.72;100.00
55068;BME280;40965;52.368;9.712;2023-10-31T03:35:23;98679.03;;;12.69;100.00
55068;BME280;40965;52.368;9.712;2023-10-31T03:37:49;98673.53;;;12.56;100.00
55068;BME280;40965;52.368;9.712;2023-10-31T03:40:16;98690.34;;;12.52;100.00
55068;BME280;40965;52.368;9.712;2023-10-31T03:42:42;98697.72;;;12.44;100.00
55068;BME280;40965;52.368;9.712;2023-10-31T03:45:09;98691.88;;;12.38;100.00
55068;BME280;40965;52.368;9.712;2023-10-31T03:47:35;98692.25;;;12.31;100.00
55068;BME280;40965;52.368;9.712;2023-10-31T03:50:02;98696.91;;;12.24;100.00
55068;BME280;40965;52.368;9.712;2023-10-31T03:52:29;98715.66;;;12.16;100.00
55068;BME280;40965;52.368;9.712;2023-10-31T03:54:55;98713.06;;;12.15;100.00
55068;BME280;40965;52.368;9.712;2023-10-31T03:57:22;98723.00;;;12.08;100.00
55068;BME280;40965;52.368;9.712;2023-10-31T03:59:49;98729.16;;;12.07;100.00
55068;BME280;40965;52.368;9.712;2023-10-31T04:02:15;98728.59;;;12.00;100.00
55068;BME280;40965;52.368;9.712;2023-10-31T04:04:42;98720.38;;;11.89;100.00
55068;BME280;40965;52.368;9.712;2023-10-31T04:07:11;98721.13;;;11.91;100.00
55068;BME280;40965;52.368;9.712;2023-10-31T04:09:37;98720.75;;;11.80;100.00
55068;BME280;40965;52.368;9.712;2023-10-31T04:12:04;98712.19;;;11.76;100.00
55068;BME280;40965;52.368;9.712;2023-10-31T04:14:31;98722.81;;;11.73;100.00
55068;BME280;40965;52.368;9.712;2023-10-31T04:16:58;98718.69;;;11.67;100.00
55068;BME280;40965;52.368;9.712;2023-10-31T04:19:24;98731.00;;;11.65;100.00
55068;BME280;40965;52.368;9.712;2023-10-31T04:21:50;98719.94;;;11.58;100.00
55068;BME280;40965;52.368;9.712;2023-10-31T04:24:16;98722.25;;;11.46;100.00
55068;BME280;40965;52.368;9.712;2023-10-31T04:26:43;98718.56;;;11.50;100.00
55068;BME280;40965;52.368;9.712;2023-10-31T04:29:09;98718.78;;;11.45;100.00
55068;BME280;40965;52.368;9.712;2023-10-31T04:31:36;98702.50;;;11.38;100.00
55068;BME280;40965;52.368;9.712;2023-10-31T04:34:02;98699.28;;;11.32;100.00
55068;BME280;40965;52.368;9.712;2023-10-31T04:36:29;98701.03;;;11.31;100.00
55068;BME280;40965;52.368;9.712;2023-10-31T04:38:58;98721.34;;;11.26;100.00
55068;BME280;40965;52.368;9.712;2023-10-31T04:41:24;98725.75;;;11.25;100.00
55068;BME280;40965;52.368;9.712;2023-10-31T04:43:51;98736.16;;;11.27;100.00
55068;BME280;40965;52.368;9.712;2023-10-31T04:46:17;98735.63;;;11.19;100.00
55068;BME280;40965;52.368;9.712;2023-10-31T04:48:44;98732.16;;;11.18;100.00
55068;BME280;40965;52.368;9.712;2023-10-31T04:51:10;98731.22;;;11.19;100.00
55068;BME280;40965;52.368;9.712;2023-10-31T04:53:37;98740.00;;;11.18;100.00
55068;BME280;40965;52.368;9.712;2023-10-31T04:56:04;98744.47;;;11.16;100.00
55068;BME280;40965;52.368;9.712;2023-10-31T04:58:30;98749.63;;;11.18;100.00
55068;BME280;40965;52.368;9.712;2023-10-31T05:00:57;98755.94;;;11.14;100.00
55068;BME280;40965;52.368;9.712;2023-10-31T05:03:23;98750.88;;;11.09;100.00
55068;BME280;40965;52.368;9.712;2023-10-31T05:05:50;98759.44;;;11.13;100.00
55068;BME280;40965;52.368;9.712;2023-10-31T05:08:16;98757.28;;;11.02;100.00
55068;BME280;40965;52.368;9.712;2023-10-31T05:10:43;98778.94;;;11.05;100.00
55068;BME280;40965;52.368;9.712;2023-10-31T05:13:09;98763.75;;;10.93;100.00
55068;BME280;40965;52.368;9.712;2023-10-31T05:15:36;98763.88;;;10.90;100.00
55068;BME280;40965;52.368;9.712;2023-10-31T05:18:05;98780.56;;;10.87;100.00
55068;BME280;40965;52.368;9.712;2023-10-31T05:20:31;98754.44;;;10.86;100.00
55068;BME280;40965;52.368;9.712;2023-10-31T05:22:58;98772.75;;;10.86;99.54
55068;BME280;40965;52.368;9.712;2023-10-31T05:25:24;98763.16;;;10.86;98.94
55068;BME280;40965;52.368;9.712;2023-10-31T05:27:51;98770.19;;;10.84;100.00
55068;BME280;40965;52.368;9.712;2023-10-31T05:30:18;98777.28;;;10.82;99.24
55068;BME280;40965;52.368;9.712;2023-10-31T05:32:44;98779.03;;;10.82;98.68
55068;BME280;40965;52.368;9.712;2023-10-31T05:35:10;98777.50;;;10.76;98.54
55068;BME280;40965;52.368;9.712;2023-10-31T05:37:39;98778.84;;;10.86;98.41
55068;BME280;40965;52.368;9.712;2023-10-31T05:40:10;98777.38;;;10.79;98.04
55068;BME280;40965;52.368;9.712;2023-10-31T05:42:40;98785.38;;;10.76;97.15
55068;BME280;40965;52.368;9.712;2023-10-31T05:45:08;98798.16;;;10.84;96.92
55068;BME280;40965;52.368;9.712;2023-10-31T05:47:35;98794.63;;;10.85;96.90
55068;BME280;40965;52.368;9.712;2023-10-31T05:50:01;98809.53;;;10.83;97.01
55068;BME280;40965;52.368;9.712;2023-10-31T05:52:28;98810.34;;;10.85;97.02
55068;BME280;40965;52.368;9.712;2023-10-31T05:54:57;98835.53;;;10.87;97.27
55068;BME280;40965;52.368;9.712;2023-10-31T05:57:23;98824.13;;;10.88;97.02
55068;BME280;40965;52.368;9.712;2023-10-31T05:59:50;98839.91;;;10.87;97.34
55068;BME280;40965;52.368;9.712;2023-10-31T06:02:16;98847.66;;;10.90;97.43
55068;BME280;40965;52.368;9.712;2023-10-31T06:04:46;98848.56;;;10.89;97.38
55068;BME280;40965;52.368;9.712;2023-10-31T06:07:15;98852.16;;;10.86;97.32
55068;BME280;40965;52.368;9.712;2023-10-31T06:09:45;98856.34;;;10.90;97.04
55068;BME280;40965;52.368;9.712;2023-10-31T06:12:12;98874.91;;;10.84;97.14
55068;BME280;40965;52.368;9.712;2023-10-31T06:14:41;98882.59;;;10.89;97.35
55068;BME280;40965;52.368;9.712;2023-10-31T06:17:09;98881.97;;;10.82;97.43
55068;BME280;40965;52.368;9.712;2023-10-31T06:19:36;98879.53;;;10.78;97.91
55068;BME280;40965;52.368;9.712;2023-10-31T06:22:03;98882.19;;;10.76;98.30
55068;BME280;40965;52.368;9.712;2023-10-31T06:24:30;98882.34;;;10.73;98.07
55068;BME280;40965;52.368;9.712;2023-10-31T06:26:56;98878.00;;;10.72;98.67
55068;BME280;40965;52.368;9.712;2023-10-31T06:29:23;98877.72;;;10.80;98.82
55068;BME280;40965;52.368;9.712;2023-10-31T06:31:50;98877.81;;;10.76;98.90
55068;BME280;40965;52.368;9.712;2023-10-31T06:34:18;98889.09;;;10.79;99.18
55068;BME280;40965;52.368;9.712;2023-10-31T06:36:45;98894.53;;;10.72;99.34
55068;BME280;40965;52.368;9.712;2023-10-31T06:39:11;98891.94;;;10.72;99.27
55068;BME280;40965;52.368;9.712;2023-10-31T06:41:38;98898.88;;;10.73;99.11
55068;BME280;40965;52.368;9.712;2023-10-31T06:44:05;98905.81;;;10.74;99.04
55068;BME280;40965;52.368;9.712;2023-10-31T06:46:31;98911.97;;;10.73;98.87
55068;BME280;40965;52.368;9.712;2023-10-31T06:48:58;98919.66;;;10.78;99.10
55068;BME280;40965;52.368;9.712;2023-10-31T06:51:24;98914.34;;;10.80;99.01
55068;BME280;40965;52.368;9.712;2023-10-31T06:53:51;98912.50;;;10.82;99.32
55068;BME280;40965;52.368;9.712;2023-10-31T06:56:19;98921.34;;;10.79;99.35
55068;BME280;40965;52.368;9.712;2023-10-31T06:58:46;98910.88;;;10.79;99.09
55068;BME280;40965;52.368;9.712;2023-10-31T07:01:12;98910.09;;;10.77;99.31
55068;BME280;40965;52.368;9.712;2023-10-31T07:03:43;98917.81;;;10.80;99.28
55068;BME280;40965;52.368;9.712;2023-10-31T07:06:10;98922.16;;;10.81;99.61
55068;BME280;40965;52.368;9.712;2023-10-31T07:08:37;98923.03;;;10.80;99.38
55068;BME280;40965;52.368;9.712;2023-10-31T07:11:03;98927.38;;;10.81;98.91
55068;BME280;40965;52.368;9.712;2023-10-31T07:13:30;98931.72;;;10.82;99.42
55068;BME280;40965;52.368;9.712;2023-10-31T07:15:57;98938.63;;;10.83;99.57
55068;BME280;40965;52.368;9.712;2023-10-31T07:18:23;98942.13;;;10.84;99.42
55068;BME280;40965;52.368;9.712;2023-10-31T07:20:50;98945.47;;;10.87;99.74
55068;BME280;40965;52.368;9.712;2023-10-31T07:23:16;98944.66;;;10.85;99.51
55068;BME280;40965;52.368;9.712;2023-10-31T07:25:43;98942.28;;;10.79;100.00
55068;BME280;40965;52.368;9.712;2023-10-31T07:28:10;98943.22;;;10.78;99.91
55068;BME280;40965;52.368;9.712;2023-10-31T07:30:37;98943.25;;;10.76;100.00
55068;BME280;40965;52.368;9.712;2023-10-31T07:33:04;98935.50;;;10.73;100.00
55068;BME280;40965;52.368;9.712;2023-10-31T07:35:30;98943.84;;;10.83;100.00
55068;BME280;40965;52.368;9.712;2023-10-31T07:37:57;98943.84;;;10.83;100.00
55068;BME280;40965;52.368;9.712;2023-10-31T07:40:23;98954.31;;;10.85;100.00
55068;BME280;40965;52.368;9.712;2023-10-31T07:42:50;98953.00;;;10.73;100.00
55068;BME280;40965;52.368;9.712;2023-10-31T07:45:17;98962.19;;;10.83;100.00
55068;BME280;40965;52.368;9.712;2023-10-31T07:47:44;98960.66;;;10.78;100.00
55068;BME280;40965;52.368;9.712;2023-10-31T07:50:10;98961.53;;;10.78;100.00
55068;BME280;40965;52.368;9.712;2023-10-31T07:52:38;98956.31;;;10.76;100.00
55068;BME280;40965;52.368;9.712;2023-10-31T07:55:05;98967.53;;;10.80;100.00
55068;BME280;40965;52.368;9.712;2023-10-31T07:57:32;98968.69;;;10.73;100.00
55068;BME280;40965;52.368;9.712;2023-10-31T07:59:58;98973.81;;;10.76;100.00
55068;BME280;40965;52.368;9.712;2023-10-31T08:02:25;98975.53;;;10.77;100.00
55068;BME280;40965;52.368;9.712;2023-10-31T08:04:51;98969.59;;;10.72;100.00
55068;BME280;40965;52.368;9.712;2023-10-31T08:07:20;98974.22;;;10.65;100.00
55068;BME280;40965;52.368;9.712;2023-10-31T08:09:48;98969.13;;;10.61;100.00
55068;BME280;40965;52.368;9.712;2023-10-31T08:12:15;98971.81;;;10.59;100.00
55068;BME280;40965;52.368;9.712;2023-10-31T08:14:41;98983.88;;;10.63;100.00
55068;BME280;40965;52.368;9.712;2023-10-31T08:17:08;98979.03;;;10.76;100.00
55068;BME280;40965;52.368;9.712;2023-10-31T08:19:34;98981.66;;;10.76;100.00
55068;BME280;40965;52.368;9.712;2023-10-31T08:22:01;98990.06;;;10.84;100.00
55068;BME280;40965;52.368;9.712;2023-10-31T08:24:27;98996.97;;;10.87;100.00
55068;BME280;40965;52.368;9.712;2023-10-31T08:26:55;98991.09;;;10.80;100.00
55068;BME280;40965;52.368;9.712;2023-10-31T08:29:21;99007.28;;;10.91;100.00
55068;BME280;40965;52.368;9.712;2023-10-31T08:31:48;99010.38;;;11.01;100.00
55068;BME280;40965;52.368;9.712;2023-10-31T08:34:18;99004.66;;;11.15;100.00
55068;BME280;40965;52.368;9.712;2023-10-31T08:36:44;99007.19;;;11.17;100.00
55068;BME280;40965;52.368;9.712;2023-10-31T08:39:11;99022.16;;;11.13;100.00
55068;BME280;40965;52.368;9.712;2023-10-31T08:41:49;99018.59;;;11.16;100.00
55068;BME280;40965;52.368;9.712;2023-10-31T08:44:25;99027.72;;;11.29;99.87
55068;BME280;40965;52.368;9.712;2023-10-31T08:46:51;99029.53;;;11.27;99.02
55068;BME280;40965;52.368;9.712;2023-10-31T08:49:20;99039.19;;;11.25;99.51
55068;BME280;40965;52.368;9.712;2023-10-31T08:51:47;99032.50;;;11.18;98.42
55068;BME280;40965;52.368;9.712;2023-10-31T08:54:13;99049.72;;;11.23;98.45
55068;BME280;40965;52.368;9.712;2023-10-31T08:56:42;99050.34;;;11.30;98.93
55068;BME280;40965;52.368;9.712;2023-10-31T08:59:08;99047.69;;;11.32;97.58
55068;BME280;40965;52.368;9.712;2023-10-31T09:01:35;99052.75;;;11.36;97.32
55068;BME280;40965;52.368;9.712;2023-10-31T09:04:01;99052.06;;;11.31;97.26
55068;BME280;40965;52.368;9.712;2023-10-31T09:06:28;99059.41;;;11.45;96.80
55068;BME280;40965;52.368;9.712;2023-10-31T09:08:54;99065.03;;;11.58;96.49
55068;BME280;40965;52.368;9.712;2023-10-31T09:11:21;99070.38;;;11.77;95.78
55068;BME280;40965;52.368;9.712;2023-10-31T09:13:48;99074.69;;;12.02;93.99
55068;BME280;40965;52.368;9.712;2023-10-31T09:16:14;99073.00;;;12.01;93.67
55068;BME280;40965;52.368;9.712;2023-10-31T09:18:44;99064.47;;;11.94;93.21
55068;BME280;40965;52.368;9.712;2023-10-31T09:21:12;99082.63;;;12.22;92.26
55068;BME280;40965;52.368;9.712;2023-10-31T09:23:40;99087.75;;;12.26;91.63
55068;BME280;40965;52.368;9.712;2023-10-31T09:26:06;99088.16;;;12.15;92.04
55068;BME280;40965;52.368;9.712;2023-10-31T09:28:36;99091.47;;;11.98;92.17
55068;BME280;40965;52.368;9.712;2023-10-31T09:31:04;99104.81;;;11.91;93.67
55068;BME280;40965;52.368;9.712;2023-10-31T09:33:30;99101.50;;;11.64;93.73
55068;BME280;40965;52.368;9.712;2023-10-31T09:35:57;99116.19;;;11.68;94.66
55068;BME280;40965;52.368;9.712;2023-10-31T09:38:23;99125.09;;;11.64;94.58
55068;BME280;40965;52.368;9.712;2023-10-31T09:40:50;99124.97;;;11.44;94.70
55068;BME280;40965;52.368;9.712;2023-10-31T09:43:17;99116.59;;;11.34;95.52
55068;BME280;40965;52.368;9.712;2023-10-31T09:45:43;99124.44;;;11.34;96.05
55068;BME280;40965;52.368;9.712;2023-10-31T09:48:11;99122.28;;;11.21;94.51
55068;BME280;40965;52.368;9.712;2023-10-31T09:50:38;99126.31;;;11.30;94.04
55068;BME280;40965;52.368;9.712;2023-10-31T09:53:05;99127.25;;;11.29;94.16
55068;BME280;40965;52.368;9.712;2023-10-31T09:55:35;99152.63;;;11.27;93.69
55068;BME280;40965;52.368;9.712;2023-10-31T09:58:03;99144.38;;;11.38;92.40
55068;BME280;40965;52.368;9.712;2023-10-31T10:00:29;99162.03;;;11.33;91.07
55068;BME280;40965;52.368;9.712;2023-10-31T10:02:56;99148.84;;;11.36;90.22
55068;BME280;40965;52.368;9.712;2023-10-31T10:05:24;99165.88;;;11.48;90.34
55068;BME280;40965;52.368;9.712;2023-10-31T10:07:55;99160.63;;;11.48;89.98
55068;BME280;40965;52.368;9.712;2023-10-31T10:10:22;99184.69;;;11.59;89.79
55068;BME280;40965;52.368;9.712;2023-10-31T10:12:48;99183.31;;;11.49;89.89
55068;BME280;40965;52.368;9.712;2023-10-31T10:15:15;99183.38;;;11.47;90.49
55068;BME280;40965;52.368;9.712;2023-10-31T10:17:49;99180.22;;;11.61;89.27
55068;BME280;40965;52.368;9.712;2023-10-31T10:20:19;99173.25;;;11.60;89.27
55068;BME280;40965;52.368;9.712;2023-10-31T10:22:46;99189.94;;;11.83;88.99
55068;BME280;40965;52.368;9.712;2023-10-31T10:25:17;99198.84;;;11.77;88.87
55068;BME280;40965;52.368;9.712;2023-10-31T10:27:46;99207.03;;;11.69;89.07
55068;BME280;40965;52.368;9.712;2023-10-31T10:30:14;99199.03;;;11.72;89.42
55068;BME280;40965;52.368;9.712;2023-10-31T10:32:41;99196.19;;;11.79;88.67
55068;BME280;40965;52.368;9.712;2023-10-31T10:35:10;99215.41;;;11.79;88.97
55068;BME280;40965;52.368;9.712;2023-10-31T10:37:39;99198.97;;;11.74;89.36
55068;BME280;40965;52.368;9.712;2023-10-31T10:40:07;99213.59;;;11.81;89.88
55068;BME280;40965;52.368;9.712;2023-10-31T10:42:54;99209.81;;;11.88;89.21
55068;BME280;40965;52.368;9.712;2023-10-31T10:45:25;99197.03;;;11.79;89.29
55068;BME280;40965;52.368;9.712;2023-10-31T10:47:54;99209.41;;;11.99;89.49
55068;BME280;40965;52.368;9.712;2023-10-31T10:50:27;99190.00;;;11.81;89.56
55068;BME280;40965;52.368;9.712;2023-10-31T10:53:28;99215.41;;;11.79;89.89
55068;BME280;40965;52.368;9.712;2023-10-31T10:56:16;99221.31;;;11.84;90.33
55068;BME280;40965;52.368;9.712;2023-10-31T10:59:01;99220.94;;;11.95;90.14
55068;BME280;40965;52.368;9.712;2023-10-31T11:01:31;99214.22;;;11.88;90.65
55068;BME280;40965;52.368;9.712;2023-10-31T11:03:58;99230.69;;;11.91;91.08
55068;BME280;40965;52.368;9.712;2023-10-31T11:06:26;99227.13;;;11.92;90.79
55068;BME280;40965;52.368;9.712;2023-10-31T11:08:55;99234.94;;;11.94;90.48
55068;BME280;40965;52.368;9.712;2023-10-31T11:11:25;99240.72;;;12.04;90.51
55068;BME280;40965;52.368;9.712;2023-10-31T11:13:55;99242.84;;;12.18;90.37
55068;BME280;40965;52.368;9.712;2023-10-31T11:16:48;99246.03;;;12.02;90.33
55068;BME280;40965;52.368;9.712;2023-10-31T11:19:22;99259.72;;;12.11;90.90
55068;BME280;40965;52.368;9.712;2023-10-31T11:22:00;99242.84;;;11.92;90.99
55068;BME280;40965;52.368;9.712;2023-10-31T11:24:31;99248.97;;;11.93;91.67
55068;BME280;40965;52.368;9.712;2023-10-31T11:27:01;99269.91;;;11.95;91.42
55068;BME280;40965;52.368;9.712;2023-10-31T11:29:30;99263.72;;;11.97;91.13
55068;BME280;40965;52.368;9.712;2023-10-31T11:31:58;99266.47;;;11.92;91.88
55068;BME280;40965;52.368;9.712;2023-10-31T11:34:29;99264.03;;;11.88;92.22
55068;BME280;40965;52.368;9.712;2023-10-31T11:37:19;99252.91;;;11.81;92.23
55068;BME280;40965;52.368;9.712;2023-10-31T11:40:16;99260.38;;;11.92;92.00
55068;BME280;40965;52.368;9.712;2023-10-31T11:42:49;99274.59;;;11.85;92.29
55068;BME280;40965;52.368;9.712;2023-10-31T11:45:40;99271.38;;;12.03;92.18
55068;BME280;40965;52.368;9.712;2023-10-31T11:48:07;99275.50;;;12.09;91.57
55068;BME280;40965;52.368;9.712;2023-10-31T11:50:37;99272.75;;;12.12;91.29
55068;BME280;40965;52.368;9.712;2023-10-31T11:53:10;99286.22;;;12.03;91.81
55068;BME280;40965;52.368;9.712;2023-10-31T11:55:43;99280.53;;;12.15;90.99
55068;BME280;40965;52.368;9.712;2023-10-31T11:58:21;99284.41;;;12.29;90.71
55068;BME280;40965;52.368;9.712;2023-10-31T12:00:52;99295.19;;;12.21;90.75
55068;BME280;40965;52.368;9.712;2023-10-31T12:03:20;99283.22;;;12.14;90.83
55068;BME280;40965;52.368;9.712;2023-10-31T12:05:55;99289.47;;;12.10;90.69
55068;BME280;40965;52.368;9.712;2023-10-31T12:08:47;99285.78;;;11.90;91.35
55068;BME280;40965;52.368;9.712;2023-10-31T12:11:23;99289.06;;;11.97;91.37
55068;BME280;40965;52.368;9.712;2023-10-31T12:14:00;99299.47;;;12.00;90.84
55068;BME280;40965;52.368;9.712;2023-10-31T12:16:31;99290.00;;;11.96;91.45
55068;BME280;40965;52.368;9.712;2023-10-31T12:19:06;99289.53;;;12.08;91.43
55068;BME280;40965;52.368;9.712;2023-10-31T12:21:43;99293.06;;;12.07;90.69
55068;BME280;40965;52.368;9.712;2023-10-31T12:24:17;99285.31;;;12.04;90.40
55068;BME280;40965;52.368;9.712;2023-10-31T12:26:46;99297.69;;;12.00;90.23
55068;BME280;40965;52.368;9.712;2023-10-31T12:29:20;99302.66;;;12.08;90.66
55068;BME280;40965;52.368;9.712;2023-10-31T12:31:51;99309.34;;;12.17;90.58
55068;BME280;40965;52.368;9.712;2023-10-31T12:34:20;99307.69;;;12.14;90.94
55068;BME280;40965;52.368;9.712;2023-10-31T12:36:50;99303.19;;;12.18;90.83
55068;BME280;40965;52.368;9.712;2023-10-31T12:39:21;99313.13;;;12.08;91.21
55068;BME280;40965;52.368;9.712;2023-10-31T12:41:49;99324.25;;;12.15;91.73
55068;BME280;40965;52.368;9.712;2023-10-31T12:44:28;99313.09;;;12.10;91.67
55068;BME280;40965;52.368;9.712;2023-10-31T12:46:55;99314.03;;;12.07;91.76
55068;BME280;40965;52.368;9.712;2023-10-31T12:49:22;99312.56;;;12.00;91.44
55068;BME280;40965;52.368;9.712;2023-10-31T12:52:03;99317.97;;;11.95;91.40
55068;BME280;40965;52.368;9.712;2023-10-31T12:54:34;99319.56;;;11.99;91.82
55068;BME280;40965;52.368;9.712;2023-10-31T12:57:12;99326.47;;;12.02;92.05
55068;BME280;40965;52.368;9.712;2023-10-31T12:59:40;99333.16;;;12.11;92.04
55068;BME280;40965;52.368;9.712;2023-10-31T13:02:07;99334.25;;;12.05;91.67